Arroyo Grande, California
Current Conditions -  °F | °C
As of 1:56 PM on Monday 20 Oct 2014 (Local Time) from KSBP Reporting Station
Clear Clear  
Wind Chill: 73°   Ceiling: Unl
Heat Index: 73°   Visibility: 10mi
Dew Point: 57°   Wind: 16mph
Humidity: 57%   Direction: 310°NW
Pressure: 29.93"   Gusts: NA
Location:  35.12°N, 120.57°W
Report Text: KSBP 202056Z 31014KT 10SM CLR 23/14 A2993 RMK AO2 SLP133 T02280139 56014
Loading
Personal Weather Stations






























Interactive Weather Map
Tropical Storm Tracking
New forecast layout! Learn more

10-Day Weather Forecast

Advertisements
Track Severe Weather on mobile